Terminal Aerodrome Forecast
Issued by NWS Buffalo, NY

Home | Current Version | Previous Version | Text Only | Print | Product List | Glossary On
Versions: 1 2 3 4 5 6 7 8 9 10 11 12 13 14 15 16 17 18 19 20 21 22 23 24 25 26 27 28 29
000
FTUS41 KBUF 211700
TAFBUF
TAF
KBUF 211739Z 2118/2218 35008KT 6SM BR VCSH SCT012 BKN025
     FM211900 36009KT P6SM OVC012
     FM212000 01010KT P6SM VCSH OVC012
     FM220100 02009KT P6SM -DZ OVC007
     FM220400 02010KT 5SM -DZ OVC012
     FM221500 02010KT P6SM OVC012=

USA.gov is the U.S. government's official web portal to all federal, state and local government web resources and services.